KTPA Airport Information

Runway Information
Runway 10 Length 6999 ft width 150 ft
Elevation 14 ft Threshold 0 ft Heading 92
Runway 28 Length 6999 ft Width 150 ft
Elevation 26 ft Threshold 0 ft Heading 272
Runway 19L Length 8300 ft width 150 ft
Elevation 26 ft Threshold 0 ft Heading 182
Runway 01R Length 8300 ft Width 150 ft
Elevation 18 ft Threshold 0 ft Heading 2
Runway 19R Length 11002 ft width 150 ft
Elevation 21 ft Threshold 0 ft Heading 182
Runway 01L Length 11002 ft Width 150 ft
Elevation 11 ft Threshold 0 ft Heading 2
Airport Frequencies
Type A/D Name APP/DEP Frequency 118.15 MHZ
Type ATIS Name ATIS Frequency 126.45 MHZ
Type CLD Name CLNC DEL Frequency 133.6 MHZ
Type GND Name GND Frequency 121.7 MHZ
Type TWR Name TWR Frequency 119.5 MHZ
Type UNIC Name UNICOM Frequency 122.95 MHZ
Airport Navaids
Type NDB Name Cosme Frequency 368 KHZ
Airport Weather Information & NOTAM
ADDS - METARS form results

(2244 UTC 24 June 2021)
Data provider http://aviationweather.gov/metar/data/
 
METAR text: KTPA 242226Z 08011G18KT 5SM -TSRA SCT020 BKN040CB BKN100 26/21 A3008 RMK AO2 LTG DSNT ALQDS RAE2155B26 VIS NW 1 FRQ LTGICCG OHD-N TS OHD-N MOV W P0000 T02610206
Conditions at: KTPA (TAMPA , FL, US) observed 2226 UTC 24 June 2021
Temperature: 26.1°C (79°F)
Dewpoint: 20.6°C (69°F) [RH = 72%]
Pressure (altimeter): 30.08 inches Hg (1018.7 mb)
Winds: from the E (80 degrees) at 13 MPH (11 knots; 5.7 m/s)
gusting to 21 MPH (18 knots; 9.3 m/s)
Visibility: 5 miles ( 8 km)
Ceiling: 4000 feet AGL
Clouds: scattered clouds at 2000 feet AGL
broken clouds at 4000 feet AGL
broken clouds at 10000 feet AGL
Weather: -TSRA  (light rain associated with thunderstorm(s))

METAR text: KTPA 242216Z 04008G17KT 020V080 10SM TS BKN020CB BKN100 27/21 A3007 RMK AO2 LTG DSNT ALQDS RAE2155 FRQ LTGICCG OHD-N TS OHD-N MOV W P0000 T02720211
Conditions at: KTPA (TAMPA , FL, US) observed 2216 UTC 24 June 2021
Temperature: 27.2°C (81°F)
Dewpoint: 21.1°C (70°F) [RH = 69%]
Pressure (altimeter): 30.07 inches Hg (1018.4 mb)
Winds: from the NE (40 degrees) at 9 MPH (8 knots; 4.1 m/s)
gusting to 20 MPH (17 knots; 8.7 m/s)
Visibility: 10 or more miles (16+ km)
Ceiling: 2000 feet AGL
Clouds: broken clouds at 2000 feet AGL
broken clouds at 10000 feet AGL
Weather: TS  (thunderstorm)

METAR text: KTPA 242153Z 18003KT 10SM -TSRA BKN040CB 31/22 A3003 RMK AO2 LTG DSNT E-SW RAB03 TSB44 SLP168 OCNL LTGIC N TS N MOV W P0000 T03110217
Conditions at: KTPA (TAMPA , FL, US) observed 2153 UTC 24 June 2021
Temperature: 31.1°C (88°F)
Dewpoint: 21.7°C (71°F) [RH = 57%]
Pressure (altimeter): 30.03 inches Hg (1017.0 mb)
[Sea-level pressure: 1016.8 mb]
Winds: from the S (180 degrees) at 3 MPH (3 knots; 1.5 m/s)
Visibility: 10 or more miles (16+ km)
Ceiling: 4000 feet AGL
Clouds: broken clouds at 4000 feet AGL
Weather: -TSRA  (light rain associated with thunderstorm(s))

METAR text: KTPA 242147Z VRB03KT 10SM -TSRA BKN040CB 31/22 A3003 RMK AO2 LTG DSNT SE-SW RAB03 TSB44 OCNL LTGIC N TS N MOV W P0000
Conditions at: KTPA (TAMPA , FL, US) observed 2147 UTC 24 June 2021
Temperature: 31.0°C (88°F)
Dewpoint: 22.0°C (72°F) [RH = 59%]
Pressure (altimeter): 30.03 inches Hg (1017.0 mb)
Winds: variable direction winds at 3 MPH (3 knots; 1.5 m/s)
Visibility: 10 or more miles (16+ km)
Ceiling: 4000 feet AGL
Clouds: broken clouds at 4000 feet AGL
Weather: -TSRA  (light rain associated with thunderstorm(s))

Forecast for: KTPA (TAMPA , FL, US)
Text: KTPA 242223Z 2422/2524 VRB06KT P6SM VCTS BKN035CB BKN100
Forecast period: 2200 UTC 24 June 2021 to 0000 UTC 25 June 2021
Forecast type: FROM: standard forecast or significant change
Winds: variable direction winds at 7 MPH (6 knots; 3.1 m/s)
Visibility: 6 or more miles (10+ km)
Ceiling: 3500 feet AGL
Clouds: broken clouds at 3500 feet AGL
broken clouds at 10000 feet AGL
Weather: VCTS  (thunderstorm in vicinity)
Text: TEMPO 2422/2424 VRB15G25KT 1SM +TSRA BKN020CB
Forecast period: 2200 UTC 24 June 2021 to 0000 UTC 25 June 2021
Forecast type: TEMPORARY: The following changes expected for less than half the time period
Winds: variable direction winds at 17 MPH (15 knots; 7.7 m/s)
gusting to 29 MPH (25 knots; 12.9 m/s)
Visibility: 1.00 miles (1.61 km)
Ceiling: 2000 feet AGL
Clouds: broken clouds at 2000 feet AGL
Weather: +TSRA  (heavy rain associated with thunderstorm(s))
Text: FM250000 03007KT P6SM -RA VCTS SCT025CB BKN080
Forecast period: 0000 to 0200 UTC 25 June 2021
Forecast type: FROM: standard forecast or significant change
Winds: from the NNE (30 degrees) at 8 MPH (7 knots; 3.6 m/s)
Visibility: 6 or more miles (10+ km)
Ceiling: 8000 feet AGL
Clouds: scattered clouds at 2500 feet AGL
broken clouds at 8000 feet AGL
Weather: -RA VCTS  (light rain, thunderstorm in vicinity)
Text: FM250200 VRB04KT P6SM SCT030 BKN150
Forecast period: 0200 to 1400 UTC 25 June 2021
Forecast type: FROM: standard forecast or significant change
Winds: variable direction winds at 5 MPH (4 knots; 2.1 m/s)
Visibility: 6 or more miles (10+ km)
Ceiling: 15000 feet AGL
Clouds: scattered clouds at 3000 feet AGL
broken clouds at 15000 feet AGL
Weather: no significant weather forecast for this period
Text: FM251400 11008KT P6SM SCT025 BKN150
Forecast period: 1400 to 1800 UTC 25 June 2021
Forecast type: FROM: standard forecast or significant change
Winds: from the ESE (110 degrees) at 9 MPH (8 knots; 4.1 m/s)
Visibility: 6 or more miles (10+ km)
Ceiling: 15000 feet AGL
Clouds: scattered clouds at 2500 feet AGL
broken clouds at 15000 feet AGL
Weather: no significant weather forecast for this period
Text: FM251800 07008KT P6SM VCTS SCT035CB BKN150
Forecast period: 1800 UTC 25 June 2021 to 0000 UTC 26 June 2021
Forecast type: FROM: standard forecast or significant change
Winds: from the ENE (70 degrees) at 9 MPH (8 knots; 4.1 m/s)
Visibility: 6 or more miles (10+ km)
Ceiling: 15000 feet AGL
Clouds: scattered clouds at 3500 feet AGL
broken clouds at 15000 feet AGL
Weather: VCTS  (thunderstorm in vicinity)